createdAt,value
2016-05-02T00:00:25.087Z,84.91
2016-05-02T00:01:25.199Z,85.11
2016-05-02T00:02:25.186Z,85.3
2016-05-02T00:03:25.142Z,85.2
2016-05-02T00:04:24.973Z,85.01
2016-05-02T00:05:25.101Z,85.11
2016-05-02T00:06:25.072Z,85.3
2016-05-02T00:07:25.043Z,84.91
2016-05-02T00:08:25.015Z,84.91
2016-05-02T00:09:25.002Z,85.11
2016-05-02T00:10:24.973Z,86.24
2016-05-02T00:11:24.945Z,85.68
2016-05-02T00:12:24.760Z,85.86
2016-05-02T00:13:24.887Z,85.86
2016-05-02T00:14:24.858Z,86.43
2016-05-02T00:15:24.846Z,86.53
2016-05-02T00:16:24.818Z,86.82
2016-05-02T00:17:24.633Z,86.58
2016-05-02T00:18:24.761Z,86.49
2016-05-02T00:19:24.731Z,87.1
2016-05-02T00:20:24.703Z,87.15
2016-05-02T00:21:24.674Z,87.82
2016-05-02T00:22:24.490Z,87.72
2016-05-02T00:23:24.633Z,87.43
2016-05-02T00:24:24.605Z,87.82
2016-05-02T00:25:24.576Z,87.24
2016-05-02T00:26:24.547Z,87.82
2016-05-02T00:27:24.518Z,87.82
2016-05-02T00:28:24.490Z,87.82
2016-05-02T00:29:24.494Z,88.01
2016-05-02T00:30:24.433Z,88.01
2016-05-02T00:31:24.421Z,87.53
2016-05-02T00:32:24.391Z,87.62
2016-05-02T00:33:24.363Z,87.72
2016-05-02T00:34:24.334Z,88.1
2016-05-02T00:35:24.321Z,87.91
2016-05-02T00:36:24.387Z,88.01
2016-05-02T00:37:24.249Z,87.91
2016-05-02T00:38:24.235Z,87.91
2016-05-02T00:39:24.192Z,88.2
2016-05-02T00:40:24.178Z,88.01
2016-05-02T00:41:24.151Z,87.82
2016-05-02T00:42:24.121Z,87.72
2016-05-02T00:43:24.093Z,87.82
2016-05-02T00:44:24.064Z,88.1
2016-05-02T00:45:24.036Z,88.39
2016-05-02T00:46:24.023Z,88.01
2016-05-02T00:47:23.994Z,88.2
2016-05-02T00:48:23.966Z,88.29
2016-05-02T00:49:23.922Z,88.01
2016-05-02T00:50:23.909Z,88.76
2016-05-02T00:51:23.958Z,88.86
2016-05-02T00:52:23.852Z,88.76
2016-05-02T00:53:23.823Z,88.48
2016-05-02T00:54:23.794Z,88.86
2016-05-02T00:55:23.781Z,89.05
2016-05-02T00:56:23.738Z,88.95
2016-05-02T00:57:23.724Z,89.33
2016-05-02T00:58:23.696Z,89.81
2016-05-02T00:59:23.667Z,89.53
2016-05-02T01:00:23.638Z,89.62
2016-05-02T01:01:23.610Z,89.43
2016-05-02T01:02:23.591Z,89.53
2016-05-02T01:03:23.606Z,89.9
2016-05-02T01:04:23.638Z,90.09
2016-05-02T01:05:23.482Z,90
2016-05-02T01:06:23.668Z,89.9
2016-05-02T01:07:23.678Z,89.81
2016-05-02T01:08:23.650Z,90.14
2016-05-02T01:09:23.654Z,90.57
2016-05-02T01:10:23.626Z,90
2016-05-02T01:11:23.629Z,90.47
2016-05-02T01:12:23.615Z,90.33
2016-05-02T01:13:23.592Z,90.62
2016-05-02T01:14:23.412Z,90.85
2016-05-02T01:15:23.546Z,90.81
2016-05-02T01:16:23.524Z,91.19
2016-05-02T01:17:23.500Z,90.81
2016-05-02T01:18:23.473Z,90.71
2016-05-02T01:19:23.446Z,90.71
2016-05-02T01:20:23.435Z,90.81
2016-05-02T01:21:23.408Z,91.38
2016-05-02T01:22:23.382Z,91.19
2016-05-02T01:23:23.354Z,91.94
2016-05-02T01:24:23.326Z,91.38
2016-05-02T01:25:23.299Z,91.47
2016-05-02T01:26:23.286Z,91.56
2016-05-02T01:27:23.243Z,92.04
2016-05-02T01:28:23.074Z,91.94
2016-05-02T01:29:23.202Z,92.23
2016-05-02T01:30:23.158Z,92.04
2016-05-02T01:31:22.990Z,92.33
2016-05-02T01:32:23.117Z,91.66
2016-05-02T01:33:23.089Z,92.23
2016-05-02T01:34:23.061Z,92.33
2016-05-02T01:35:22.875Z,92.42
2016-05-02T01:36:23.097Z,92.42
2016-05-02T01:37:22.975Z,92.42
2016-05-02T01:38:22.962Z,92.23
2016-05-02T01:39:22.917Z,92.71
2016-05-02T01:40:22.889Z,92.33
2016-05-02T01:41:22.875Z,92.8
2016-05-02T01:42:22.847Z,92.52
2016-05-02T01:43:22.647Z,92.33
2016-05-02T01:44:22.775Z,92.33
2016-05-02T01:45:22.761Z,92.52
2016-05-02T01:46:22.733Z,92.61
2016-05-02T01:47:22.705Z,92.71
2016-05-02T01:48:22.676Z,92.71
2016-05-02T01:49:22.488Z,92.61
2016-05-02T01:50:22.616Z,92.52
2016-05-02T01:51:22.825Z,93.08
2016-05-02T01:52:22.560Z,93.27
2016-05-02T01:53:22.546Z,93.08
2016-05-02T01:54:22.518Z,92.9
2016-05-02T01:55:22.473Z,93.08
2016-05-02T01:56:22.460Z,93.18
2016-05-02T01:57:22.432Z,92.99
2016-05-02T01:58:22.419Z,92.99
2016-05-02T01:59:22.359Z,93.08
2016-05-02T02:00:22.190Z,92.9
2016-05-02T02:01:22.318Z,93.08
2016-05-02T02:02:22.289Z,93.84
2016-05-02T02:03:22.261Z,93.27
2016-05-02T02:04:22.232Z,93.46
2016-05-02T02:05:22.203Z,93.65
2016-05-02T02:06:22.300Z,93.46
2016-05-02T02:07:22.162Z,93.56
2016-05-02T02:08:22.117Z,93.37
2016-05-02T02:09:22.089Z,93.65
2016-05-02T02:10:22.076Z,93.94
2016-05-02T02:11:22.032Z,93.7
2016-05-02T02:12:21.863Z,94.13
2016-05-02T02:13:21.975Z,94.23
2016-05-02T02:14:21.962Z,93.84
2016-05-02T02:15:21.933Z,94.03
2016-05-02T02:16:21.905Z,94.13
2016-05-02T02:17:21.719Z,94.18
2016-05-02T02:18:21.847Z,94.13
2016-05-02T02:19:21.819Z,94.23
2016-05-02T02:20:21.791Z,93.89
2016-05-02T02:21:21.762Z,94.23
2016-05-02T02:22:21.765Z,93.89
2016-05-02T02:23:21.721Z,94.18
2016-05-02T02:24:21.693Z,94.37
2016-05-02T02:25:21.653Z,93.99
2016-05-02T02:26:21.624Z,93.99
2016-05-02T02:27:21.663Z,93.8
2016-05-02T02:28:21.557Z,94.56
2016-05-02T02:29:21.544Z,95.03
2016-05-02T02:30:21.515Z,95.12
2016-05-02T02:31:21.487Z,95.5
2016-05-02T02:32:21.459Z,95.5
2016-05-02T02:33:21.430Z,95.88
2016-05-02T02:34:21.245Z,95.6
2016-05-02T02:35:21.373Z,95.6
2016-05-02T02:36:21.203Z,95.6
2016-05-02T02:37:21.175Z,95.5
2016-05-02T02:38:21.287Z,95.69
2016-05-02T02:39:21.258Z,95.22
2016-05-02T02:40:21.230Z,95.41
2016-05-02T02:41:21.201Z,95.03
2016-05-02T02:42:21.173Z,95.03
2016-05-02T02:43:21.144Z,95.12
2016-05-02T02:44:21.116Z,95.22
2016-05-02T02:45:21.102Z,94.74
2016-05-02T02:46:21.058Z,95.12
2016-05-02T02:47:21.046Z,94.84
2016-05-02T02:48:21.017Z,94.56
2016-05-02T02:49:20.988Z,94.56
2016-05-02T02:50:20.960Z,95.03
2016-05-02T02:51:21.557Z,95.31
2016-05-02T02:52:20.888Z,95.41
2016-05-02T02:53:20.874Z,95.5
2016-05-02T02:54:20.846Z,95.5
2016-05-02T02:55:20.818Z,95.5
2016-05-02T02:56:20.788Z,96.08
2016-05-02T02:57:20.760Z,95.98
2016-05-02T02:58:20.731Z,96.36
2016-05-02T02:59:20.703Z,96.26
2016-05-02T03:00:20.691Z,96.26
2016-05-02T03:01:20.646Z,96.17
2016-05-02T03:02:20.617Z,96.26
2016-05-02T03:03:20.589Z,95.79
2016-05-02T03:04:20.420Z,95.88
2016-05-02T03:05:20.548Z,96.26
2016-05-02T03:06:20.519Z,95.69
2016-05-02T03:07:20.475Z,95.69
2016-05-02T03:08:20.446Z,95.69
2016-05-02T03:09:20.418Z,95.79
2016-05-02T03:10:20.389Z,95.6
2016-05-02T03:11:20.376Z,95.6
2016-05-02T03:12:20.332Z,96.17
2016-05-02T03:13:20.304Z,96.17
2016-05-02T03:14:20.275Z,96.08
2016-05-02T03:15:20.261Z,96.55
2016-05-02T03:16:20.233Z,96.08
2016-05-02T03:17:20.205Z,95.98
2016-05-02T03:18:20.176Z,95.98
2016-05-02T03:19:20.147Z,96.08
2016-05-02T03:20:20.119Z,96.08
2016-05-02T03:21:20.183Z,96.26
2016-05-02T03:22:20.062Z,96.26
2016-05-02T03:23:19.877Z,96.36
2016-05-02T03:24:20.005Z,96.36
2016-05-02T03:25:19.976Z,95.69
2016-05-02T03:26:19.947Z,95.79
2016-05-02T03:27:19.919Z,95.79
2016-05-02T03:28:19.734Z,96.26
2016-05-02T03:29:19.877Z,96.08
2016-05-02T03:30:19.677Z,96.55
2016-05-02T03:31:19.649Z,96.36
2016-05-02T03:32:19.776Z,96.45
2016-05-02T03:33:19.748Z,96.45
2016-05-02T03:34:19.718Z,96.36
2016-05-02T03:35:19.690Z,96.36
2016-05-02T03:36:19.646Z,96.26
2016-05-02T03:37:19.634Z,96.45
2016-05-02T03:38:19.604Z,96.36
2016-05-02T03:39:19.576Z,95.98
2016-05-02T03:40:19.548Z,95.98
2016-05-02T03:41:19.519Z,96.36
2016-05-02T03:42:19.350Z,96.26
2016-05-02T03:43:19.477Z,96.17
2016-05-02T03:44:19.433Z,96.26
2016-05-02T03:45:19.420Z,95.98
2016-05-02T03:46:19.408Z,96.36
2016-05-02T03:47:19.364Z,95.98
2016-05-02T03:48:19.335Z,96.36
2016-05-02T03:49:19.291Z,96.26
2016-05-02T03:50:19.277Z,96.36
2016-05-02T03:51:19.108Z,96.45
2016-05-02T03:52:19.221Z,96.36
2016-05-02T03:53:19.192Z,96.83
2016-05-02T03:54:19.163Z,97.02
2016-05-02T03:55:19.135Z,96.17
2016-05-02T03:56:19.107Z,96.64
2016-05-02T03:57:19.078Z,96.45
2016-05-02T03:58:19.050Z,96.55
2016-05-02T03:59:19.021Z,95.98
2016-05-02T04:00:18.836Z,96.17
2016-05-02T04:01:18.963Z,95.98
2016-05-02T04:02:18.935Z,96.36
2016-05-02T04:03:18.922Z,96.17
2016-05-02T04:04:18.722Z,96.17
2016-05-02T04:05:18.849Z,96.17
2016-05-02T04:06:18.821Z,96.73
2016-05-02T04:07:18.793Z,96.83
2016-05-02T04:08:18.764Z,97.21
2016-05-02T04:09:18.735Z,97.12
2016-05-02T04:10:18.550Z,97.31
2016-05-02T04:11:18.709Z,97.88
2016-05-02T04:12:18.650Z,98.07
2016-05-02T04:13:18.621Z,98.07
2016-05-02T04:14:18.592Z,97.31
2016-05-02T04:15:18.564Z,97.4
2016-05-02T04:16:18.551Z,97.21
2016-05-02T04:17:18.522Z,97.31
2016-05-02T04:18:18.478Z,96.92
2016-05-02T04:19:18.450Z,96.64
2016-05-02T04:20:18.436Z,96.92
2016-05-02T04:21:18.408Z,96.36
2016-05-02T04:22:18.364Z,96.26
2016-05-02T04:23:18.350Z,96.17
2016-05-02T04:24:18.322Z,96.26
2016-05-02T04:25:18.294Z,96.36
2016-05-02T04:26:18.265Z,95.88
2016-05-02T04:27:18.221Z,95.69
2016-05-02T04:28:18.193Z,95.88
2016-05-02T04:29:18.163Z,95.69
2016-05-02T04:30:17.994Z,95.6
2016-05-02T04:31:17.966Z,95.22
2016-05-02T04:32:18.078Z,95.41
2016-05-02T04:33:18.065Z,95.31
2016-05-02T04:34:18.037Z,95.65
2016-05-02T04:35:17.993Z,95.55
2016-05-02T04:36:17.979Z,95.65
2016-05-02T04:37:17.795Z,95.27
2016-05-02T04:38:17.923Z,95.46
2016-05-02T04:39:17.894Z,94.98
2016-05-02T04:40:17.881Z,94.7
2016-05-02T04:41:17.836Z,94.89
2016-05-02T04:42:17.808Z,94.89
2016-05-02T04:43:17.780Z,94.42
2016-05-02T04:44:17.751Z,94.7
2016-05-02T04:45:17.723Z,94.23
2016-05-02T04:46:17.694Z,93.94
2016-05-02T04:47:17.681Z,93.65
2016-05-02T04:48:17.637Z,93.6
2016-05-02T04:49:17.608Z,93.6
2016-05-02T04:50:17.580Z,93.32
2016-05-02T04:51:18.551Z,92.85
2016-05-02T04:52:17.522Z,92.66
2016-05-02T04:53:17.510Z,92.66
2016-05-02T04:54:17.481Z,92.75
2016-05-02T04:55:17.452Z,92.85
2016-05-02T04:56:17.424Z,92.94
2016-05-02T04:57:17.396Z,92.85
2016-05-02T04:58:17.367Z,92.47
2016-05-02T04:59:17.338Z,93.23
2016-05-02T05:00:17.310Z,93.13
2016-05-02T05:01:17.297Z,93.7
2016-05-02T05:02:17.252Z,93.32
2016-05-02T05:03:17.240Z,93.32
2016-05-02T05:04:17.211Z,93.51
2016-05-02T05:05:17.182Z,93.51
2016-05-02T05:06:17.216Z,93.7
2016-05-02T05:07:17.126Z,93.6
2016-05-02T05:08:17.097Z,93.8
2016-05-02T05:09:17.069Z,93.6
2016-05-02T05:10:17.056Z,93.8
2016-05-02T05:11:17.012Z,93.51
2016-05-02T05:12:16.982Z,93.7
2016-05-02T05:13:16.954Z,93.6
2016-05-02T05:14:16.942Z,93.7
2016-05-02T05:15:16.913Z,93.6
2016-05-02T05:16:16.868Z,93.41
2016-05-02T05:17:16.840Z,93.6
2016-05-02T05:18:16.828Z,93.84
2016-05-02T05:19:16.798Z,93.46
2016-05-02T05:20:16.786Z,93.56
2016-05-02T05:21:16.741Z,93.65
2016-05-02T05:22:16.713Z,93.46
2016-05-02T05:23:16.684Z,93.84
2016-05-02T05:24:16.656Z,93.84
2016-05-02T05:25:16.627Z,93.56
2016-05-02T05:26:16.599Z,93.75
2016-05-02T05:27:16.586Z,92.99
2016-05-02T05:28:16.557Z,93.27
2016-05-02T05:29:16.528Z,92.99
2016-05-02T05:30:16.500Z,93.18
2016-05-02T05:31:16.488Z,93.18
2016-05-02T05:32:16.443Z,92.99
2016-05-02T05:33:16.414Z,93.18
2016-05-02T05:34:16.401Z,93.18
2016-05-02T05:35:16.373Z,93.04
2016-05-02T05:36:16.672Z,93.32
2016-05-02T05:37:16.315Z,93.32
2016-05-02T05:38:16.287Z,92.66
2016-05-02T05:39:16.102Z,92.66
2016-05-02T05:40:16.229Z,92.85
2016-05-02T05:41:16.218Z,92.56
2016-05-02T05:42:16.188Z,92.46
2016-05-02T05:43:16.159Z,92.46
2016-05-02T05:44:16.131Z,92.46
2016-05-02T05:45:16.103Z,92.56
2016-05-02T05:46:16.090Z,92.46
2016-05-02T05:47:16.061Z,92.56
2016-05-02T05:48:16.017Z,92.08
2016-05-02T05:49:16.004Z,91.85
2016-05-02T05:50:15.976Z,92.41
2016-05-02T05:51:15.791Z,92.41
2016-05-02T05:52:15.919Z,91.66
2016-05-02T05:53:15.889Z,91.56
2016-05-02T05:54:15.877Z,91.37
2016-05-02T05:55:15.848Z,91.28
2016-05-02T05:56:15.836Z,90.99
2016-05-02T05:57:15.792Z,91.08
2016-05-02T05:58:15.763Z,91.18
2016-05-02T05:59:15.749Z,91.08
2016-05-02T06:00:15.721Z,91.37
2016-05-02T06:01:15.693Z,90.94
2016-05-02T06:02:15.664Z,90.75
2016-05-02T06:03:15.635Z,90.56
2016-05-02T06:04:15.622Z,90.18
2016-05-02T06:05:15.594Z,90.84
2016-05-02T06:06:15.971Z,90.37
2016-05-02T06:07:15.552Z,89.32
2016-05-02T06:08:18.149Z,88.85
2016-05-02T06:09:17.449Z,88.94
2016-05-02T06:10:17.811Z,88.28
2016-05-02T06:11:18.016Z,88.51
2016-05-02T06:12:18.268Z,88.42
2016-05-02T06:13:17.225Z,88.6
2016-05-02T06:14:15.806Z,88.42
2016-05-02T06:15:18.198Z,88.51
2016-05-02T06:16:18.014Z,88.51
2016-05-02T06:17:16.704Z,88.42
2016-05-02T06:18:16.848Z,88.32
2016-05-02T06:19:17.787Z,87.56
2016-05-02T06:20:17.775Z,86.9
2016-05-02T06:21:18.011Z,85.94
2016-05-02T06:22:17.717Z,85.32
2016-05-02T06:23:14.991Z,85.41
2016-05-02T06:24:15.118Z,85.32
2016-05-02T06:25:15.091Z,85.51
2016-05-02T06:26:15.077Z,86.18
2016-05-02T06:27:15.049Z,84.94
2016-05-02T06:28:15.019Z,85.22
2016-05-02T06:29:15.413Z,86.08
2016-05-02T06:30:14.979Z,85.13
2016-05-02T06:31:17.341Z,85.03
2016-05-02T06:32:14.765Z,85.51
2016-05-02T06:33:14.893Z,85.03
2016-05-02T06:34:14.880Z,85.22
2016-05-02T06:35:14.867Z,85.17
2016-05-02T06:36:14.839Z,84.88
2016-05-02T06:37:14.810Z,85.08
2016-05-02T06:38:14.626Z,84.31
2016-05-02T06:39:14.753Z,84.12
2016-05-02T06:40:14.724Z,83.84
2016-05-02T06:41:14.712Z,83.55
2016-05-02T06:42:15.668Z,83.36
2016-05-02T06:43:17.279Z,83.45
2016-05-02T06:44:17.173Z,83.12
2016-05-02T06:45:17.331Z,82.69
2016-05-02T06:46:17.272Z,82.26
2016-05-02T06:47:17.320Z,82.26
2016-05-02T06:48:17.137Z,82.17
2016-05-02T06:49:17.248Z,82.07
2016-05-02T06:50:17.017Z,81.4
2016-05-02T06:51:17.098Z,80.83
2016-05-02T06:52:14.303Z,80.73
2016-05-02T06:53:14.258Z,80.73
2016-05-02T06:54:14.402Z,80.87
2016-05-02T06:55:14.217Z,80.77
2016-05-02T06:56:14.345Z,80.49
2016-05-02T06:57:14.176Z,80.01
2016-05-02T06:58:14.304Z,79.15
2016-05-02T06:59:14.275Z,79.15
2016-05-02T07:00:14.263Z,79.06
2016-05-02T07:01:14.077Z,78.52
2016-05-02T07:02:14.221Z,78.05
2016-05-02T07:03:14.193Z,77.19
2016-05-02T07:04:14.180Z,76.94
2016-05-02T07:05:14.166Z,76.27
2016-05-02T07:06:14.216Z,75.07
2016-05-02T07:07:14.110Z,72.87
2016-05-02T07:08:14.081Z,71.42
2016-05-02T07:09:14.068Z,68.49
2016-05-02T07:10:14.040Z,65.78
2016-05-02T07:11:14.026Z,63.26
2016-05-02T07:12:13.842Z,59.74
2016-05-02T07:13:13.985Z,56.92
2016-05-02T07:14:13.987Z,54.93
2016-05-02T07:15:13.787Z,53.23
2016-05-02T07:16:13.930Z,52.68
2016-05-02T07:17:13.902Z,50.04
2016-05-02T07:18:13.889Z,48.33
2016-05-02T07:19:13.876Z,47.77
2016-05-02T07:20:13.863Z,46.45
2016-05-02T07:21:14.334Z,45.99
2016-05-02T07:22:13.837Z,43.81
2016-05-02T07:23:13.808Z,42.58
2016-05-02T07:24:13.796Z,40.94
2016-05-02T07:25:13.783Z,40.09
2016-05-02T07:26:13.770Z,38.46
2016-05-02T07:27:13.773Z,37.98
2016-05-02T07:28:13.744Z,37.9
2016-05-02T07:29:13.731Z,36.86
2016-05-02T07:30:13.718Z,36
2016-05-02T07:31:13.705Z,35.91
2016-05-02T07:32:13.691Z,34.86
2016-05-02T07:33:13.679Z,34.49
2016-05-02T07:34:13.666Z,32.75
2016-05-02T07:35:13.513Z,32.86
2016-05-02T07:36:13.671Z,32.49
2016-05-02T07:37:13.659Z,31.62
2016-05-02T07:38:13.629Z,31.32
2016-05-02T07:39:13.618Z,30.76
2016-05-02T07:40:13.635Z,30
2016-05-02T07:41:13.607Z,29.91
2016-05-02T07:42:13.579Z,29.82
2016-05-02T07:43:13.410Z,29.72
2016-05-02T07:44:13.568Z,28.47
2016-05-02T07:45:13.571Z,28.38
2016-05-02T07:46:13.543Z,28.66
2016-05-02T07:47:13.545Z,27.59
2016-05-02T07:48:13.532Z,27.42
2016-05-02T07:49:13.519Z,27.12
2016-05-02T07:50:13.365Z,26.36
2016-05-02T07:51:13.353Z,25.69
2016-05-02T07:52:13.512Z,25.59
2016-05-02T07:53:13.514Z,26.28
2016-05-02T07:54:13.486Z,26.17
2016-05-02T07:55:13.472Z,26.07
2016-05-02T07:56:13.475Z,25.79
2016-05-02T07:57:13.463Z,24.54
2016-05-02T07:58:13.450Z,24.06
2016-05-02T07:59:13.452Z,24.27
2016-05-02T08:00:13.439Z,23.88
2016-05-02T08:01:13.442Z,22.91
2016-05-02T08:02:13.429Z,22.72
2016-05-02T08:03:13.416Z,23.3
2016-05-02T08:04:13.419Z,23.3
2016-05-02T08:05:13.405Z,22.91
2016-05-02T08:06:13.393Z,23.4
2016-05-02T08:07:13.396Z,22.72
2016-05-02T08:08:13.383Z,21.95
2016-05-02T08:09:13.386Z,22.24
2016-05-02T08:10:13.372Z,21.95
2016-05-02T08:11:13.376Z,21.95
2016-05-02T08:12:13.362Z,21.96
2016-05-02T08:13:13.349Z,21.77
2016-05-02T08:14:13.352Z,21.57
2016-05-02T08:15:13.340Z,21.48
2016-05-02T08:16:13.342Z,21.97
2016-05-02T08:17:13.328Z,21.57
2016-05-02T08:18:13.331Z,21.28
2016-05-02T08:19:13.334Z,21.58
2016-05-02T08:20:13.321Z,21.78
2016-05-02T08:21:13.215Z,21.48
2016-05-02T08:22:13.311Z,21.68
2016-05-02T08:23:13.313Z,20.7
2016-05-02T08:24:13.301Z,21
2016-05-02T08:25:13.288Z,20.8
2016-05-02T08:26:13.291Z,20.9
2016-05-02T08:27:13.278Z,20.8
2016-05-02T08:28:13.280Z,20.9
2016-05-02T08:29:13.283Z,21.58
2016-05-02T08:30:13.270Z,20.8
2016-05-02T08:31:13.257Z,20.8
2016-05-02T08:32:13.260Z,21.08
2016-05-02T08:33:13.106Z,21.08
2016-05-02T08:34:13.249Z,21.96
2016-05-02T08:35:13.252Z,22.06
2016-05-02T08:36:13.239Z,21.96
2016-05-02T08:37:13.085Z,21.58
2016-05-02T08:38:13.230Z,21.88
2016-05-02T08:39:13.060Z,22.06
2016-05-02T08:40:13.078Z,21.97
2016-05-02T08:41:13.221Z,21.78
2016-05-02T08:42:13.209Z,21.68
2016-05-02T08:43:13.212Z,20.8
2016-05-02T08:44:13.198Z,21.58
2016-05-02T08:45:13.201Z,21.68
2016-05-02T08:46:13.188Z,21
2016-05-02T08:47:13.176Z,21.78
2016-05-02T08:48:13.178Z,22.05
2016-05-02T08:49:13.165Z,23.96
2016-05-02T08:50:13.167Z,24.91
2016-05-02T08:51:13.014Z,26.17
2016-05-02T08:52:13.157Z,26.62
2016-05-02T08:53:13.145Z,27.87
2016-05-02T08:54:13.131Z,28.15
2016-05-02T08:55:13.118Z,29.19
2016-05-02T08:56:13.106Z,30.82
2016-05-02T08:57:13.109Z,32.17
2016-05-02T08:58:13.095Z,31.76
2016-05-02T08:59:13.083Z,32.23
2016-05-02T09:00:13.070Z,35.02
2016-05-02T09:01:13.056Z,36.34
2016-05-02T09:02:13.044Z,36.13
2016-05-02T09:03:12.891Z,37.95
2016-05-02T09:04:12.877Z,38.51
2016-05-02T09:05:13.021Z,38.29
2016-05-02T09:06:12.852Z,40.9
2016-05-02T09:07:12.994Z,40.88
2016-05-02T09:08:12.982Z,40.86
2016-05-02T09:09:12.969Z,43.07
2016-05-02T09:10:12.955Z,43.34
2016-05-02T09:11:12.927Z,43.34
2016-05-02T09:12:12.929Z,43.73
2016-05-02T09:13:12.917Z,44.09
2016-05-02T09:14:12.888Z,44.19
2016-05-02T09:15:12.875Z,45.15
2016-05-02T09:16:12.878Z,45.03
2016-05-02T09:17:12.849Z,45.8
2016-05-02T09:18:12.837Z,45.99
2016-05-02T09:19:12.823Z,45.99
2016-05-02T09:20:12.811Z,47.31
2016-05-02T09:21:12.798Z,47.31
2016-05-02T09:22:12.785Z,48.28
2016-05-02T09:23:12.756Z,48.47
2016-05-02T09:24:12.743Z,48.16
2016-05-02T09:25:12.730Z,47.39
2016-05-02T09:26:12.718Z,47.49
2016-05-02T09:27:12.705Z,48.25
2016-05-02T09:28:12.676Z,49.12
2016-05-02T09:29:12.664Z,48.52
2016-05-02T09:30:12.666Z,48.61
2016-05-02T09:31:12.636Z,49.1
2016-05-02T09:32:12.608Z,49.96
2016-05-02T09:33:12.612Z,48.52
2016-05-02T09:34:12.583Z,50.05
2016-05-02T09:35:12.569Z,49.19
2016-05-02T09:36:13.026Z,50.05
2016-05-02T09:37:12.544Z,49.48
2016-05-02T09:38:12.515Z,48.43
2016-05-02T09:39:12.519Z,48.71
2016-05-02T09:40:12.490Z,49.1
2016-05-02T09:41:12.476Z,50.44
2016-05-02T09:42:12.464Z,49.38
2016-05-02T09:43:12.435Z,49.29
2016-05-02T09:44:12.421Z,49.1
2016-05-02T09:45:12.410Z,49.29
2016-05-02T09:46:12.224Z,48.9
2016-05-02T09:47:12.368Z,49.67
2016-05-02T09:48:12.355Z,52.08
2016-05-02T09:49:12.342Z,52.26
2016-05-02T09:50:12.313Z,53.42
2016-05-02T09:51:12.315Z,51.79
2016-05-02T09:52:12.288Z,51.02
2016-05-02T09:53:12.259Z,50.82
2016-05-02T09:54:12.262Z,52.17
2016-05-02T09:55:12.233Z,50.92
2016-05-02T09:56:12.220Z,50.25
2016-05-02T09:57:12.191Z,49.77
2016-05-02T09:58:12.178Z,48.52
2016-05-02T09:59:12.166Z,48.71
2016-05-02T10:00:12.152Z,49
2016-05-02T10:01:12.139Z,48.52
2016-05-02T10:02:12.127Z,49.57
2016-05-02T10:03:11.942Z,50.34
2016-05-02T10:04:12.101Z,50.63
2016-05-02T10:05:12.072Z,50.37
2016-05-02T10:06:11.888Z,49.96
2016-05-02T10:07:12.030Z,50.66
2016-05-02T10:08:12.018Z,50.05
2016-05-02T10:09:12.006Z,49.67
2016-05-02T10:10:12.051Z,48.04
2016-05-02T10:11:12.066Z,48.45
2016-05-02T10:12:12.097Z,48.81
2016-05-02T10:13:12.111Z,49.22
2016-05-02T10:14:12.146Z,48.45
2016-05-02T10:15:12.133Z,48.74
2016-05-02T10:16:12.230Z,49.02
2016-05-02T10:17:12.123Z,49.69
2016-05-02T10:18:12.126Z,49.6
2016-05-02T10:19:12.125Z,48.64
2016-05-02T10:20:12.117Z,49.12
2016-05-02T10:21:12.111Z,47.39
2016-05-02T10:22:12.087Z,46.53
2016-05-02T10:23:12.081Z,46.23
2016-05-02T10:24:12.071Z,46.33
2016-05-02T10:25:12.061Z,45.95
2016-05-02T10:26:12.034Z,47.3
2016-05-02T10:27:12.039Z,47.3
2016-05-02T10:28:12.012Z,45.85
2016-05-02T10:29:11.986Z,45.66
2016-05-02T10:30:11.973Z,45.76
2016-05-02T10:31:11.961Z,47
2016-05-02T10:32:11.949Z,49.02
2016-05-02T10:33:11.952Z,47
2016-05-02T10:34:11.924Z,46.23
2016-05-02T10:35:11.895Z,45.37
2016-05-02T10:36:11.882Z,45.28
2016-05-02T10:37:11.714Z,47.68
2016-05-02T10:38:11.841Z,46.53
2016-05-02T10:39:11.672Z,45.47
2016-05-02T10:40:11.799Z,45.66
2016-05-02T10:41:11.786Z,47.58
2016-05-02T10:42:11.774Z,47.2
2016-05-02T10:43:11.761Z,44.12
2016-05-02T10:44:11.732Z,43.45
2016-05-02T10:45:11.579Z,44.89
2016-05-02T10:46:11.706Z,46.33
2016-05-02T10:47:11.537Z,43.93
2016-05-02T10:48:11.679Z,43.64
2016-05-02T10:49:11.652Z,44.22
2016-05-02T10:50:11.639Z,42.97
2016-05-02T10:51:11.767Z,43.35
2016-05-02T10:52:11.597Z,42.7
2016-05-02T10:53:11.600Z,43.37
2016-05-02T10:54:11.587Z,40.68
2016-05-02T10:55:11.402Z,40.01
2016-05-02T10:56:11.545Z,38.18
2016-05-02T10:57:11.517Z,37.7
2016-05-02T10:58:11.504Z,40.3
2016-05-02T10:59:11.492Z,38.95
2016-05-02T11:00:11.494Z,38.95
2016-05-02T11:01:11.465Z,40.11
2016-05-02T11:02:11.436Z,40.49
2016-05-02T11:03:11.424Z,40.3
2016-05-02T11:04:11.255Z,40.39
2016-05-02T11:05:11.383Z,41.83
2016-05-02T11:06:11.370Z,41.06
2016-05-02T11:07:11.356Z,40.78
2016-05-02T11:08:11.344Z,40.47
2016-05-02T11:09:11.174Z,42.03
2016-05-02T11:10:11.302Z,40.97
2016-05-02T11:11:11.288Z,39.33
2016-05-02T11:12:11.260Z,40.3
2016-05-02T11:13:11.264Z,41.64
2016-05-02T11:14:11.235Z,38.37
2016-05-02T11:15:11.222Z,35.58
2016-05-02T11:16:11.052Z,34.33
2016-05-02T11:17:11.196Z,36.07
2016-05-02T11:18:11.168Z,37.7
2016-05-02T11:19:11.154Z,36.54
2016-05-02T11:20:11.141Z,37.6
2016-05-02T11:21:11.051Z,38.47
2016-05-02T11:22:11.100Z,38.95
2016-05-02T11:23:11.079Z,39.53
2016-05-02T11:24:11.066Z,39.24
2016-05-02T11:25:11.054Z,38.66
2016-05-02T11:26:11.040Z,37.87
2016-05-02T11:27:11.012Z,37.68
2016-05-02T11:28:10.998Z,37.68
2016-05-02T11:29:10.986Z,39.24
2016-05-02T11:30:10.957Z,38.47
2016-05-02T11:31:10.803Z,38.56
2016-05-02T11:32:10.932Z,40.2
2016-05-02T11:33:10.919Z,40.2
2016-05-02T11:34:10.906Z,38.28
2016-05-02T11:35:10.877Z,39.24
2016-05-02T11:36:10.880Z,39.53
2016-05-02T11:37:10.851Z,39.53
2016-05-02T11:38:10.839Z,38.95
2016-05-02T11:39:10.810Z,38.56
2016-05-02T11:40:10.797Z,38.18
2016-05-02T11:41:10.784Z,39.14
2016-05-02T11:42:10.771Z,38.47
2016-05-02T11:43:10.741Z,38.47
2016-05-02T11:44:10.730Z,38.09
2016-05-02T11:45:10.716Z,37.04
2016-05-02T11:46:10.719Z,37.04
2016-05-02T11:47:10.691Z,38.97
2016-05-02T11:48:10.677Z,39.64
2016-05-02T11:49:10.649Z,39.24
2016-05-02T11:50:10.636Z,38.09
2016-05-02T11:51:10.623Z,38.39
2016-05-02T11:52:10.595Z,38.37
2016-05-02T11:53:10.582Z,37.91
2016-05-02T11:54:10.568Z,36.83
2016-05-02T11:55:10.556Z,37.51
2016-05-02T11:56:10.527Z,36.45
2016-05-02T11:57:10.358Z,36.93
2016-05-02T11:58:10.501Z,37.7
2016-05-02T11:59:10.473Z,37.7
2016-05-02T12:00:10.460Z,36.93
2016-05-02T12:01:10.447Z,36.25
2016-05-02T12:02:10.434Z,35.58
2016-05-02T12:03:10.421Z,35.58
2016-05-02T12:04:10.409Z,35.6
2016-05-02T12:05:10.380Z,36.83
2016-05-02T12:06:10.367Z,36.85
2016-05-02T12:07:10.354Z,35.5
2016-05-02T12:08:10.326Z,34.64
2016-05-02T12:09:10.312Z,34.92
2016-05-02T12:10:10.300Z,36.08
2016-05-02T12:11:10.286Z,35.7
2016-05-02T12:12:10.258Z,35.31
2016-05-02T12:13:10.245Z,35.31
2016-05-02T12:14:10.233Z,35.97
2016-05-02T12:15:10.219Z,33.87
2016-05-02T12:16:10.190Z,34.23
2016-05-02T12:17:10.177Z,33.85
2016-05-02T12:18:10.165Z,33.67
2016-05-02T12:19:10.152Z,32.71
2016-05-02T12:20:10.124Z,33.2
2016-05-02T12:21:09.954Z,33.67
2016-05-02T12:22:10.097Z,32.43
2016-05-02T12:23:10.068Z,33.48
2016-05-02T12:24:10.071Z,34.45
2016-05-02T12:25:10.042Z,33.77
2016-05-02T12:26:10.046Z,32.04
2016-05-02T12:27:10.001Z,31.08
2016-05-02T12:28:09.988Z,31.27
2016-05-02T12:29:09.975Z,31.27
2016-05-02T12:30:09.978Z,32.04
2016-05-02T12:31:09.950Z,33.39
2016-05-02T12:32:09.764Z,32.62
2016-05-02T12:33:09.909Z,33.2
2016-05-02T12:34:09.895Z,33.48
2016-05-02T12:35:09.881Z,34.25
2016-05-02T12:36:09.714Z,33.1
2016-05-02T12:37:09.841Z,32.9
2016-05-02T12:38:09.844Z,33.87
2016-05-02T12:39:09.815Z,34.06
2016-05-02T12:40:09.802Z,34.54
2016-05-02T12:41:09.789Z,34.35
2016-05-02T12:42:09.760Z,35.41
2016-05-02T12:43:09.747Z,34.74
2016-05-02T12:44:09.719Z,37.34
2016-05-02T12:45:09.706Z,36.18
2016-05-02T12:46:09.693Z,35.02
2016-05-02T12:47:09.727Z,35.99
2016-05-02T12:48:09.651Z,35.31
2016-05-02T12:49:09.655Z,34.45
2016-05-02T12:50:09.469Z,34.06
2016-05-02T12:51:09.457Z,34.06
2016-05-02T12:52:09.600Z,35.5
2016-05-02T12:53:09.587Z,36.08
2016-05-02T12:54:10.027Z,36.08
2016-05-02T12:55:09.545Z,34.64
2016-05-02T12:56:09.532Z,34.54